Airfield :
LOGIN :

Register | Disclaimer

   EN    FR    IT 

 










Legend :    VFR   Marginal VFR   IFR   Intensive IFR   Very Intensive IFR
Visi :
Ceiling :
>= 8 km
>= 3000ft
5 to 8 km
1000 to 3000 ft
1500m to 5 km
500 to 1000 ft
800 to 1500m
200 to 500 ft
< 800m
< 200 ft
Symbols :   Thunderstorms  Fog  Heavy snow  Heavy precipitations  Wind > 20 kt
SIGMETs :     Misc.  Thunderstorms  Icing  Turbulence  Mountain Waves  Volcanic Ashes







- Airport Elevation : 755 ft
- IATA code : DRS


EDDC - Dresden Klotzsche

CURRENT METAR :
  • 170350Z 19005KT CAVOK 00/M01 Q1025

EXPIRED METARs :
  • 170320Z 20005KT CAVOK 01/M00 Q1025
  • 170250Z 19003KT CAVOK 01/M00 Q1025
  • 170220Z 21006KT CAVOK 02/M00 Q1025
  • 170150Z 19007KT CAVOK 01/M00 Q1025
  • 170120Z 21007KT CAVOK 02/00 Q1026

TAF TAF EDDC
Valid from the 17 at 00:00 until the 18 at 00:00 UTC


162300Z 1700/1724 17004KT CAVOK
No reported NOTAMs for that airfield.



MET'MAP, your aeronautical weather chart ! - Copyright ORBIFLY December 2007 - Disclaimer

ORBIFLY MET'MAP TEAM :

Programming & Development : Alexandra Zaïnal
Concept & Development : Baudouin d'Aumeries
Co-Development & Prog : Marc-Olivier Méhu
Technical & hardware support : Manuel Goepfert

Contact : metmap@orbifly.com




SOURCES & CREDITS :

   NOAA